createdAt,value
2022-11-29T00:00:47.629Z,-3.97
2022-11-29T00:05:51.630Z,-3.85
2022-11-29T00:10:54.148Z,-3.73
2022-11-29T00:16:01.314Z,-3.89
2022-11-29T00:21:08.567Z,-3.80
2022-11-29T00:26:11.097Z,-3.96
2022-11-29T00:31:26.071Z,-4.00
2022-11-29T00:36:29.069Z,-3.94
2022-11-29T00:41:31.865Z,-3.92
2022-11-29T00:46:34.406Z,-3.95
2022-11-29T00:51:37.150Z,-4.01
2022-11-29T00:56:40.293Z,-3.94
2022-11-29T01:01:43.148Z,-3.77
2022-11-29T01:06:45.802Z,-4.10
2022-11-29T01:11:50.347Z,-3.96
2022-11-29T01:16:52.892Z,-4.17
2022-11-29T01:21:55.692Z,-4.20
2022-11-29T01:26:58.291Z,-4.31
2022-11-29T01:32:00.827Z,-4.54
2022-11-29T01:37:03.427Z,-4.36
2022-11-29T01:42:06.019Z,-4.72
2022-11-29T01:47:11.240Z,-4.39
2022-11-29T01:52:15.931Z,-4.46
2022-11-29T01:57:20.554Z,-4.23
2022-11-29T02:02:31.154Z,-4.38
2022-11-29T02:07:34.367Z,-4.24
2022-11-29T02:12:43.051Z,-4.58
2022-11-29T02:18:06.756Z,-4.85
2022-11-29T02:23:33.994Z,-5.07
2022-11-29T02:29:05.002Z,-5.29
2022-11-29T02:34:07.470Z,-5.37
2022-11-29T02:39:54.307Z,-5.25
2022-11-29T02:45:14.042Z,-5.35
2022-11-29T02:50:51.118Z,-4.98
2022-11-29T02:56:32.060Z,-4.99
2022-11-29T03:02:04.189Z,-4.91
2022-11-29T03:07:06.696Z,-4.75
2022-11-29T03:12:30.461Z,-4.64
2022-11-29T03:17:50.788Z,-4.63
2022-11-29T03:23:09.598Z,-4.60
2022-11-29T03:28:25.549Z,-4.48
2022-11-29T03:33:32.190Z,-4.29
2022-11-29T03:38:42.369Z,-4.11
2022-11-29T03:44:03.774Z,-4.16
2022-11-29T03:49:47.663Z,-3.97
2022-11-29T03:55:06.011Z,-3.80
2022-11-29T04:00:12.682Z,-3.88
2022-11-29T04:05:38.781Z,-3.95
2022-11-29T04:10:44.227Z,-4.05
2022-11-29T04:16:21.068Z,-4.10
2022-11-29T04:21:38.518Z,-4.31
2022-11-29T04:27:26.062Z,-4.38
2022-11-29T04:32:34.142Z,-4.47
2022-11-29T04:38:04.491Z,-4.46
2022-11-29T04:43:39.047Z,-4.36
2022-11-29T04:49:11.132Z,-4.61
2022-11-29T04:54:22.924Z,-4.88
2022-11-29T04:59:43.760Z,-5.06
2022-11-29T05:05:04.927Z,-5.21
2022-11-29T05:10:36.010Z,-5.32
2022-11-29T05:16:02.384Z,-5.27
2022-11-29T05:21:44.054Z,-5.22
2022-11-29T05:27:14.740Z,-5.12
2022-11-29T05:32:44.723Z,-5.07
2022-11-29T05:37:55.137Z,-5.14
2022-11-29T05:43:12.135Z,-5.15
2022-11-29T05:48:46.636Z,-5.00
2022-11-29T05:54:05.184Z,-4.83
2022-11-29T05:59:13.307Z,-4.84
2022-11-29T06:04:46.655Z,-4.82
2022-11-29T06:10:01.497Z,-4.62
2022-11-29T06:15:16.595Z,-4.63
2022-11-29T06:20:55.563Z,-4.73
2022-11-29T06:26:26.729Z,-4.74
2022-11-29T06:31:42.500Z,-4.68
2022-11-29T06:36:53.326Z,-4.81
2022-11-29T06:41:56.121Z,-4.73
2022-11-29T06:46:58.677Z,-4.55
2022-11-29T06:52:22.766Z,-4.68
2022-11-29T06:57:52.021Z,-4.66
2022-11-29T07:03:41.727Z,-4.59
2022-11-29T07:08:45.676Z,-4.93
2022-11-29T07:13:48.524Z,-4.94
2022-11-29T07:19:03.974Z,-4.76
2022-11-29T07:24:18.039Z,-4.61
2022-11-29T07:29:41.872Z,-4.32
2022-11-29T07:35:19.345Z,-4.34
2022-11-29T07:40:45.927Z,-4.44
2022-11-29T07:45:48.854Z,-4.18
2022-11-29T07:50:51.433Z,-4.24
2022-11-29T07:55:54.131Z,-4.08
2022-11-29T08:00:56.882Z,-3.85
2022-11-29T08:05:59.651Z,-3.79
2022-11-29T08:11:02.285Z,-3.76
2022-11-29T08:16:05.221Z,-3.51
2022-11-29T08:21:08.727Z,-3.50
2022-11-29T08:26:11.748Z,-3.31
2022-11-29T08:31:14.536Z,-3.42
2022-11-29T08:36:19.464Z,-3.43
2022-11-29T08:41:21.996Z,-3.35
2022-11-29T08:46:51.909Z,-3.26
2022-11-29T08:52:14.616Z,-3.39
2022-11-29T08:57:39.183Z,-3.23
2022-11-29T09:02:40.121Z,-3.26
2022-11-29T09:07:43.501Z,-3.16
2022-11-29T09:12:46.448Z,-3.14
2022-11-29T09:17:49.107Z,-3.01
2022-11-29T09:22:52.626Z,-3.00
2022-11-29T09:27:58.375Z,-2.90
2022-11-29T09:33:02.868Z,-3.45
2022-11-29T09:38:13.644Z,-4.23
2022-11-29T09:43:24.860Z,-3.91
2022-11-29T09:48:55.588Z,-3.37
2022-11-29T09:54:06.509Z,-3.28
2022-11-29T09:59:14.248Z,-3.26
2022-11-29T10:04:25.522Z,-3.33
2022-11-29T10:09:43.001Z,-3.43
2022-11-29T10:15:04.479Z,-3.57
2022-11-29T10:20:29.154Z,-3.63
2022-11-29T10:25:37.867Z,-3.68
2022-11-29T10:30:41.618Z,-3.45
2022-11-29T10:35:46.111Z,-3.64
2022-11-29T10:40:52.875Z,-3.49
2022-11-29T10:45:56.424Z,-3.48
2022-11-29T10:51:00.114Z,-3.45
2022-11-29T10:56:14.630Z,-3.36
2022-11-29T11:01:17.429Z,-3.41
2022-11-29T11:06:42.571Z,-3.38
2022-11-29T11:11:54.443Z,-3.36
2022-11-29T11:17:20.163Z,-3.23
2022-11-29T11:22:25.403Z,-3.20
2022-11-29T11:27:35.345Z,-3.32
2022-11-29T11:32:38.482Z,-3.44
2022-11-29T11:37:41.116Z,-3.64
2022-11-29T11:42:44.024Z,-3.54
2022-11-29T11:47:54.174Z,-3.70
2022-11-29T11:53:05.132Z,-3.71
2022-11-29T11:58:13.865Z,-3.71
2022-11-29T12:03:40.469Z,-3.67
2022-11-29T12:08:45.046Z,-3.80
2022-11-29T12:13:55.507Z,-3.98
2022-11-29T12:19:07.225Z,-3.81
2022-11-29T12:24:30.668Z,-3.97
2022-11-29T12:29:35.430Z,-4.81
2022-11-29T12:35:28.502Z,-4.98
2022-11-29T12:40:42.325Z,-5.12
2022-11-29T12:46:08.921Z,-5.17
2022-11-29T12:51:39.930Z,-5.27
2022-11-29T12:56:55.166Z,-5.31
2022-11-29T13:02:26.788Z,-5.38
2022-11-29T13:08:13.386Z,-5.60
2022-11-29T13:13:47.927Z,-5.63
2022-11-29T13:18:58.902Z,-5.80
2022-11-29T13:24:10.043Z,-6.24
2022-11-29T13:29:16.939Z,-5.91
2022-11-29T13:34:31.154Z,-5.99
2022-11-29T13:40:14.083Z,-6.13
2022-11-29T13:45:25.675Z,-6.37
2022-11-29T13:50:43.864Z,-6.48
2022-11-29T13:55:59.998Z,-6.53
2022-11-29T14:01:10.492Z,-6.60
2022-11-29T14:06:33.384Z,-6.88
2022-11-29T14:11:50.720Z,-6.94
2022-11-29T14:16:58.636Z,-6.94
2022-11-29T14:22:05.713Z,-7.07
2022-11-29T14:27:14.233Z,-7.11
2022-11-29T14:32:46.153Z,-7.19
2022-11-29T14:38:13.944Z,-7.18
2022-11-29T14:43:37.810Z,-7.21
2022-11-29T14:49:02.341Z,-7.12
2022-11-29T14:54:19.716Z,-7.10
2022-11-29T14:59:50.212Z,-6.90
2022-11-29T15:04:57.023Z,-7.05
2022-11-29T15:10:05.358Z,-6.98
2022-11-29T15:15:21.964Z,-6.91
2022-11-29T15:20:43.053Z,-6.84
2022-11-29T15:25:54.132Z,-6.94
2022-11-29T15:31:09.822Z,-7.08
2022-11-29T15:36:21.712Z,-7.10
2022-11-29T15:41:31.792Z,-7.08
2022-11-29T15:46:35.886Z,-7.25
2022-11-29T15:51:39.641Z,-7.34
2022-11-29T15:56:55.995Z,-7.29
2022-11-29T16:02:02.813Z,-7.31
2022-11-29T16:07:06.625Z,-7.33
2022-11-29T16:12:15.296Z,-7.32
2022-11-29T16:17:20.836Z,-7.27
2022-11-29T16:22:24.414Z,-7.21
2022-11-29T16:27:28.216Z,-7.41
2022-11-29T16:32:34.129Z,-7.49
2022-11-29T16:37:40.650Z,-7.36
2022-11-29T16:43:06.482Z,-7.49
2022-11-29T16:48:27.737Z,-7.42
2022-11-29T16:53:44.327Z,-7.57
2022-11-29T16:59:26.019Z,-7.68
2022-11-29T17:04:24.317Z,-7.59
2022-11-29T17:09:30.922Z,-7.72
2022-11-29T17:14:33.550Z,-8.01
2022-11-29T17:19:36.170Z,-8.14
2022-11-29T17:24:44.778Z,-8.17
2022-11-29T17:29:50.379Z,-8.01
2022-11-29T17:34:52.949Z,-7.83
2022-11-29T17:39:56.830Z,-7.96
2022-11-29T17:45:00.186Z,-8.08
2022-11-29T17:50:02.866Z,-8.29
2022-11-29T17:55:06.593Z,-7.92
2022-11-29T18:00:12.990Z,-8.09
2022-11-29T18:05:15.640Z,-8.05
2022-11-29T18:10:18.311Z,-8.24
2022-11-29T18:15:21.006Z,-8.09
2022-11-29T18:20:23.679Z,-8.42
2022-11-29T18:25:41.631Z,-8.09
2022-11-29T18:30:44.235Z,-8.20
2022-11-29T18:35:47.398Z,-8.04
2022-11-29T18:40:49.990Z,-8.20
2022-11-29T18:45:53.734Z,-8.41
2022-11-29T18:51:01.830Z,-8.08
2022-11-29T18:56:10.278Z,-8.09
2022-11-29T19:01:18.439Z,-8.19
2022-11-29T19:06:31.768Z,-8.29
2022-11-29T19:11:40.335Z,-8.08
2022-11-29T19:16:45.780Z,-8.16
2022-11-29T19:21:48.763Z,-8.27
2022-11-29T19:26:51.390Z,-8.32
2022-11-29T19:31:54.154Z,-8.34
2022-11-29T19:36:56.761Z,-8.26
2022-11-29T19:42:01.394Z,-8.18
2022-11-29T19:47:04.106Z,-8.17
2022-11-29T19:52:07.050Z,-8.14
2022-11-29T19:57:10.092Z,-8.12
2022-11-29T20:02:12.985Z,-8.30
2022-11-29T20:07:15.588Z,-8.17
2022-11-29T20:12:18.527Z,-8.07
2022-11-29T20:17:22.063Z,-8.15
2022-11-29T20:22:27.293Z,-8.14
2022-11-29T20:27:29.968Z,-8.21
2022-11-29T20:32:32.692Z,-8.23
2022-11-29T20:37:45.733Z,-8.32
2022-11-29T20:42:57.039Z,-8.29
2022-11-29T20:48:13.149Z,-8.34
2022-11-29T20:53:31.526Z,-8.25
2022-11-29T20:58:34.681Z,-8.26
2022-11-29T21:03:37.469Z,-8.43
2022-11-29T21:08:40.079Z,-8.15
2022-11-29T21:13:43.361Z,-8.16
2022-11-29T21:18:48.470Z,-8.08
2022-11-29T21:23:59.513Z,-8.10
2022-11-29T21:29:15.791Z,-8.07
2022-11-29T21:34:19.285Z,-8.04
2022-11-29T21:39:22.699Z,-7.87
2022-11-29T21:44:25.354Z,-7.90
2022-11-29T21:49:28.357Z,-8.02
2022-11-29T21:54:30.891Z,-7.98
2022-11-29T21:59:33.446Z,-8.08
2022-11-29T22:04:35.966Z,-8.17
2022-11-29T22:09:38.672Z,-8.36
2022-11-29T22:14:41.177Z,-8.47
2022-11-29T22:19:43.674Z,-8.28
2022-11-29T22:24:46.351Z,-8.37
2022-11-29T22:29:49.531Z,-8.45
2022-11-29T22:34:52.068Z,-8.45
2022-11-29T22:39:54.614Z,-8.54
2022-11-29T22:44:57.168Z,-8.54
2022-11-29T22:49:59.737Z,-8.49
2022-11-29T22:55:05.028Z,-8.49
2022-11-29T23:00:08.715Z,-8.46
2022-11-29T23:05:11.237Z,-8.56
2022-11-29T23:10:13.719Z,-8.52
2022-11-29T23:15:16.359Z,-8.55
2022-11-29T23:20:18.864Z,-8.56
2022-11-29T23:25:21.388Z,-8.47
2022-11-29T23:30:24.040Z,-8.67
2022-11-29T23:35:26.908Z,-8.36
2022-11-29T23:40:29.514Z,-8.38
2022-11-29T23:45:36.307Z,-8.45
2022-11-29T23:50:38.898Z,-8.37
2022-11-29T23:55:42.382Z,-8.42
